Weather History for North Wilkesboro, NC

Change the Weather History Date:

Wednesday, February 20, 2013

  Actual Average Record
Temperature  
Mean Temperature 38 °F -  
Max Temperature 50 °F 55 °F 70 °F (1976)
Min Temperature 26 °F 28 °F 10 °F (1968)
Degree Days  
Heating Degree Days 27    
Moisture  
Dew Point 8 °F    
Average Humidity 32    
Maximum Humidity 55    
Minimum Humidity 15    
Precipitation  
Precipitation 0.00 in - - ()
Sea Level Pressure  
Sea Level Pressure 30.09 in    
Wind  
Wind Speed 5 mph (NW)    
Max Wind Speed 12 mph    
Max Gust Speed 21 mph    
Visibility 10 miles    
Events      
Averages and records for this station are not official NWS values.
T = Trace of Precipitation, MM = Missing Value Source: NWS Daily Summary

Daily Weather History Graph

Daily Weather History Graph

Search for Another Location

Airport:

Trip Planner

Search our weather history database for the weather conditions in past years. The results will help you decide how hot, cold, wet, or windy it might be!

Date:

Astronomy

Feb. 20, 2013 Rise Set
Actual Time 7:05 AM EST 6:10 PM EST
Civil Twilight 6:39 AM EST 6:36 PM EST
Nautical Twilight 6:09 AM EST 7:06 PM EST
Astronomical Twilight 5:40 AM EST 7:36 PM EST
Moon 1:36 PM EST (2/20) 3:19 AM EST (2/20)
Length of Visible Light 11h 57m
Length of Day
11h 04m
Waxing Gibbous, 76% of the Moon is Illuminated
Feb 20
Waxing Gibbous
Feb 25
Full
Mar 4
Last Quarter
Mar 11
New
Mar 19
First Quarter

Hourly Weather History & Observations

Time (EST) Temp. Windchill Dew Point Humidity Pressure Visibility Wind Dir Wind Speed Gust Speed Precip Events Conditions
12:15 AM 35.6 °F 29.9 °F 10.4 °F 35% 30.05 in 10.0 mi WNW 6.9 mph 16.1 mph N/A   Clear
12:35 AM 35.6 °F 29.2 °F 10.4 °F 35% 30.05 in 10.0 mi WNW 8.1 mph - N/A   Clear
12:55 AM 35.6 °F 29.9 °F 12.2 °F 38% 30.06 in 10.0 mi WNW 6.9 mph - N/A   Clear
1:15 AM 35.6 °F 29.9 °F 12.2 °F 38% 30.07 in 10.0 mi WNW 6.9 mph - N/A   Clear
1:35 AM 33.8 °F 29.6 °F 12.2 °F 41% 30.07 in 10.0 mi NW 4.6 mph - N/A   Clear
1:55 AM 33.8 °F 28.6 °F 12.2 °F 41% 30.06 in 10.0 mi NW 5.8 mph - N/A   Clear
2:15 AM 33.8 °F - 12.2 °F 41% 30.05 in 10.0 mi Calm Calm - N/A   Clear
2:35 AM 32.0 °F - 12.2 °F 44% 30.05 in 10.0 mi Calm Calm - N/A   Clear
2:55 AM 32.0 °F 28.7 °F 12.2 °F 44% 30.04 in 10.0 mi West 3.5 mph - N/A   Clear
3:15 AM 32.0 °F 28.7 °F 12.2 °F 44% 30.05 in 10.0 mi West 3.5 mph - N/A   Clear
3:35 AM 32.0 °F 27.5 °F 12.2 °F 44% 30.05 in 10.0 mi WSW 4.6 mph - N/A   Clear
3:55 AM 30.2 °F - 12.2 °F 47% 30.05 in 10.0 mi Calm Calm - N/A   Clear
4:15 AM 32.0 °F - 12.2 °F 44% 30.05 in 10.0 mi Calm Calm - N/A   Clear
4:35 AM 30.2 °F - 12.2 °F 47% 30.05 in 10.0 mi Calm Calm - N/A   Clear
4:55 AM 30.2 °F - 12.2 °F 47% 30.05 in 10.0 mi Calm Calm - N/A   Clear
5:35 AM 28.4 °F - 10.4 °F 47% 30.05 in 10.0 mi Calm Calm - N/A   Clear
5:55 AM 26.6 °F - 12.2 °F 55% 30.05 in 10.0 mi Calm Calm - N/A   Clear
6:15 AM 26.6 °F - 12.2 °F 55% 30.05 in 10.0 mi Calm Calm - N/A   Clear
6:35 AM 26.6 °F - 12.2 °F 55% 30.05 in 10.0 mi Calm Calm - N/A   Clear
6:55 AM 28.4 °F 22.2 °F 12.2 °F 51% 30.06 in 10.0 mi ESE 5.8 mph - N/A   Clear
7:15 AM 26.6 °F - 12.2 °F 55% 30.07 in 10.0 mi Calm Calm - N/A   Clear
7:35 AM 30.2 °F 25.4 °F 12.2 °F 47% 30.08 in 10.0 mi SE 4.6 mph - N/A   Clear
7:55 AM 32.0 °F 28.7 °F 12.2 °F 44% 30.08 in 10.0 mi SE 3.5 mph - N/A   Clear
8:15 AM 32.0 °F - 15.8 °F 51% 30.07 in 10.0 mi North - - N/A   Clear
8:35 AM 33.8 °F 29.6 °F 12.2 °F 41% 30.08 in 10.0 mi East 4.6 mph - N/A   Clear
8:55 AM 33.8 °F 28.6 °F 12.2 °F 41% 30.08 in 10.0 mi SE 5.8 mph - N/A   Clear
9:15 AM 35.6 °F 31.7 °F 8.6 °F 33% 30.09 in 10.0 mi SE 4.6 mph - N/A   Clear
9:35 AM 37.4 °F 34.9 °F 5.0 °F 26% 30.09 in 10.0 mi East 3.5 mph - N/A   Clear
9:55 AM 37.4 °F 33.8 °F 5.0 °F 26% 30.10 in 10.0 mi SE 4.6 mph - N/A   Clear
10:15 AM 39.2 °F 37.0 °F 5.0 °F 24% 30.10 in 10.0 mi East 3.5 mph - N/A   Clear
10:35 AM 41.0 °F - 6.8 °F 24% 30.10 in 10.0 mi Calm Calm - N/A   Clear
10:55 AM 41.0 °F - 5.0 °F 23% 30.10 in 10.0 mi Calm Calm - N/A   Clear
11:15 AM 42.8 °F - 5.0 °F 21% 30.10 in 10.0 mi Calm Calm - N/A   Clear
11:35 AM 42.8 °F - 3.2 °F 19% 30.10 in 10.0 mi Calm Calm - N/A   Clear
11:55 AM 46.4 °F 42.4 °F 8.6 °F 22% 30.10 in 10.0 mi WNW 8.1 mph 16.1 mph N/A   Clear
12:15 PM 46.4 °F 44.3 °F 8.6 °F 22% 30.09 in 10.0 mi NNW 4.6 mph - N/A   Clear
12:35 PM 46.4 °F 41.9 °F 6.8 °F 20% 30.08 in 10.0 mi SW 9.2 mph - N/A   Clear
12:55 PM 44.6 °F - 3.2 °F 18% 30.07 in 10.0 mi Calm Calm - N/A   Clear
1:15 PM 48.2 °F - 8.6 °F 20% 30.07 in 10.0 mi SW 6.9 mph - N/A   Clear
1:35 PM 50.0 °F - 8.6 °F 19% 30.06 in 10.0 mi WSW 3.5 mph 16.1 mph N/A   Clear
1:55 PM 50.0 °F - 10.4 °F 20% 30.05 in 10.0 mi SSW 8.1 mph - N/A   Clear
2:35 PM 50.0 °F - 5.0 °F 16% 30.05 in 10.0 mi SSW 4.6 mph - N/A   Clear
2:55 PM 48.2 °F - 3.2 °F 16% 30.05 in 10.0 mi NNW 8.1 mph - N/A   Clear
3:15 PM 50.0 °F - 3.2 °F 15% 30.05 in 10.0 mi NW 10.4 mph - N/A   Clear
3:35 PM 50.0 °F - 3.2 °F 15% 30.06 in 10.0 mi NNW 11.5 mph - N/A   Clear
3:55 PM 46.4 °F 42.9 °F 3.2 °F 17% 30.06 in 10.0 mi NW 6.9 mph - N/A   Clear
4:15 PM 46.4 °F 41.9 °F 3.2 °F 17% 30.06 in 10.0 mi NW 9.2 mph - N/A   Clear
4:35 PM 46.4 °F 42.9 °F 1.4 °F 16% 30.07 in 10.0 mi NW 6.9 mph 17.3 mph N/A   Clear
4:55 PM 46.4 °F 42.9 °F 1.4 °F 16% 30.07 in 10.0 mi NW 6.9 mph - N/A   Clear
5:15 PM 44.6 °F 41.4 °F 1.4 °F 17% 30.09 in 10.0 mi WNW 5.8 mph - N/A   Clear
5:35 PM 44.6 °F 40.7 °F 1.4 °F 17% 30.10 in 10.0 mi NW 6.9 mph - N/A   Clear
5:55 PM 42.8 °F 37.0 °F 1.4 °F 18% 30.10 in 10.0 mi NW 10.4 mph 20.7 mph N/A   Clear
6:15 PM 42.8 °F 37.0 °F 3.2 °F 19% 30.12 in 10.0 mi WNW 10.4 mph 19.6 mph N/A   Clear
6:55 PM 41.0 °F 35.2 °F 3.2 °F 21% 30.14 in 10.0 mi NW 9.2 mph - N/A   Clear
7:15 PM 39.2 °F 33.6 °F 5.0 °F 24% 30.14 in 10.0 mi NW 8.1 mph - N/A   Clear
7:35 PM 39.2 °F 33.6 °F 5.0 °F 24% 30.14 in 10.0 mi NW 8.1 mph - N/A   Clear
7:55 PM 37.4 °F 31.4 °F 6.8 °F 28% 30.15 in 10.0 mi NNW 8.1 mph - N/A   Clear
8:35 PM 37.4 °F 30.3 °F 8.6 °F 30% 30.15 in 10.0 mi NNW 10.4 mph 18.4 mph N/A   Clear
8:55 PM 37.4 °F 30.8 °F 8.6 °F 30% 30.15 in 10.0 mi NNW 9.2 mph 19.6 mph N/A   Clear
9:15 PM 37.4 °F 30.3 °F 8.6 °F 30% 30.16 in 10.0 mi NW 10.4 mph - N/A   Clear
9:35 PM 35.6 °F 30.7 °F 10.4 °F 35% 30.16 in 10.0 mi North 5.8 mph - N/A   Clear
9:55 PM 35.6 °F 27.5 °F 12.2 °F 38% 30.16 in 10.0 mi North 11.5 mph - N/A   Clear
10:35 PM 33.8 °F 25.8 °F 10.4 °F 38% 30.16 in 10.0 mi North 10.4 mph - N/A   Clear
10:55 PM 33.8 °F 26.4 °F 10.4 °F 38% 30.15 in 10.0 mi NNE 9.2 mph - N/A   Clear
11:15 PM 32.0 °F - 12.2 °F 44% 30.16 in 10.0 mi Calm Calm - N/A   Clear
11:35 PM 33.8 °F 28.6 °F 10.4 °F 38% 30.15 in 10.0 mi North 5.8 mph - N/A   Clear
11:55 PM 32.0 °F 28.7 °F 12.2 °F 44% 30.15 in 10.0 mi NNW 3.5 mph - N/A   Clear